Aeroporto :
LOGIN :

Iscrizione | Disclaimer

   EN    FR    IT 

 










Sommario :    VFR   VFR Marginale   IFR   IFR Intensivo   IFR Molto Intensivo
Visibilità : 
Base nubi : 
>= 8 km
>= 3000ft
5 / 8 km
1000 / 3000 ft
1500m / 5 km
500 / 1000 ft
800 / 1500m
200 / 500 ft
< 800m
< 200 ft
Simboli :   Temporali  Nebbia  Neve Forte  Precipitazioni Forti  Vento > 20 kt
SIGMETs :   Varie  Temporali  Ghiacco  Turbolenza  Onda orograficha  Ceneri Vulcaniche






- Altitudine del aeroporto : 3 ft
- Codice IATA : DHR


EHKD - Den Helder De Kooy

ULTIMO METAR :
  • 131155Z AUTO 28015KT 250V320 9999 -RA FEW024 SCT039 BKN044 09/04 Q0997 BLU 28015G25KT 9999 SCT025 BKN040 TEMPO 4500 FEW012 SCT018CB BKN025

METARs OBSOLETI :
  • 131125Z AUTO 28012KT 250V320 9999 SCT028 SCT049 BKN060 10/04 Q0997 BLU 28015G25KT 9999 SCT025 BKN040 TEMPO 4500 FEW012 SCT018CB BKN025
  • 131055Z AUTO 28014KT 250V310 9999 FEW043 SCT048 10/05 Q0997 BLU 28015G25KT 9999 SCT025 BKN040 TEMPO 4500 FEW012 SCT018CB BKN025
  • 131025Z AUTO 29015KT 240V320 9999 NCD 10/05 Q0997 BLU 28015G25KT 9999 SCT025 BKN040 TEMPO 4500 FEW012 SCT018CB BKN025
  • 130955Z AUTO 29014KT 250V330 9999 NCD 10/05 Q0996 BLU 28015G25KT 9999 SCT025 BKN040 TEMPO 4500 FEW012 SCT018CB BKN025
  • 130925Z AUTO 29015KT 260V320 9999 FEW026 10/05 Q0996 BLU 28015G25KT 9999 SCT025 BKN040 TEMPO 4500 FEW012 SCT018CB BKN025

TAF TAF EHKD
Valido dal 13 a 10 ore il 13 a 22 ore UTC


130945Z 1310/1322 28014G24KT 9999 SCT020 BKN040
TEMPO 1310/1322 4500 SHRA FEW009 SCT018CB BKN025
PROB30
TEMPO 1310/1316 20016G28KT 3000 TSRAGS SCT008 SCT015CB BKN020
BECMG 1317/1320 16008KT



MetMap, La meteo Aeronautica in un colpo d'occhio ! - Copyright ORBIFLY Dicembre 2007 - Disclaimer

ORBIFLY MET'MAP TEAM :

Programmazione e sviluppo : Alexandra Zaïnal
Concezione e sviluppo : Baudouin d'Aumeries
Co-Programmazione e sviluppo : Marc-Olivier Méhu
Supporto tecnico e logistico : Manuel Goepfert
Aiuto per la traduzione : Arnaldo La Scala

Contatto : metmap@orbifly.com




FONTI E CREDITI :

   NOAA